sensor_id;sensor_type;location;lat;lon;timestamp;temperature;humidity
35531;DHT22;21637;53.352;-6.356;2022-11-18T00:00:18;7.10;99.90
35531;DHT22;21637;53.352;-6.356;2022-11-18T00:02:43;7.10;99.90
35531;DHT22;21637;53.352;-6.356;2022-11-18T00:05:09;7.20;99.90
35531;DHT22;21637;53.352;-6.356;2022-11-18T00:07:34;7.20;99.90
35531;DHT22;21637;53.352;-6.356;2022-11-18T00:10:00;7.20;99.90
35531;DHT22;21637;53.352;-6.356;2022-11-18T00:12:25;7.20;99.90
35531;DHT22;21637;53.352;-6.356;2022-11-18T00:15:10;7.20;99.90
35531;DHT22;21637;53.352;-6.356;2022-11-18T00:17:35;7.20;99.90
35531;DHT22;21637;53.352;-6.356;2022-11-18T00:20:01;7.20;99.90
35531;DHT22;21637;53.352;-6.356;2022-11-18T00:22:26;7.20;99.90
35531;DHT22;21637;53.352;-6.356;2022-11-18T00:24:52;7.20;99.90
35531;DHT22;21637;53.352;-6.356;2022-11-18T00:27:17;7.30;99.90
35531;DHT22;21637;53.352;-6.356;2022-11-18T00:29:43;7.20;99.90
35531;DHT22;21637;53.352;-6.356;2022-11-18T00:32:08;7.20;99.90
35531;DHT22;21637;53.352;-6.356;2022-11-18T00:34:34;7.20;99.90
35531;DHT22;21637;53.352;-6.356;2022-11-18T00:37:00;7.30;99.90
35531;DHT22;21637;53.352;-6.356;2022-11-18T00:39:25;7.20;99.90
35531;DHT22;21637;53.352;-6.356;2022-11-18T00:41:51;7.20;99.90
35531;DHT22;21637;53.352;-6.356;2022-11-18T00:44:35;7.20;99.90
35531;DHT22;21637;53.352;-6.356;2022-11-18T00:47:01;7.30;99.90
35531;DHT22;21637;53.352;-6.356;2022-11-18T00:49:27;7.20;99.90
35531;DHT22;21637;53.352;-6.356;2022-11-18T00:51:53;7.20;99.90
35531;DHT22;21637;53.352;-6.356;2022-11-18T00:54:18;7.20;99.90
35531;DHT22;21637;53.352;-6.356;2022-11-18T00:56:44;7.20;99.90
35531;DHT22;21637;53.352;-6.356;2022-11-18T00:59:09;7.20;99.90
35531;DHT22;21637;53.352;-6.356;2022-11-18T01:01:35;7.20;99.90
35531;DHT22;21637;53.352;-6.356;2022-11-18T01:04:01;7.20;99.90
35531;DHT22;21637;53.352;-6.356;2022-11-18T01:06:27;7.20;99.90
35531;DHT22;21637;53.352;-6.356;2022-11-18T01:08:52;7.20;99.90
35531;DHT22;21637;53.352;-6.356;2022-11-18T01:11:18;7.10;99.90
35531;DHT22;21637;53.352;-6.356;2022-11-18T01:14:02;7.10;99.90
35531;DHT22;21637;53.352;-6.356;2022-11-18T01:16:27;7.10;99.90
35531;DHT22;21637;53.352;-6.356;2022-11-18T01:18:54;7.10;99.90
35531;DHT22;21637;53.352;-6.356;2022-11-18T01:21:20;7.10;99.90
35531;DHT22;21637;53.352;-6.356;2022-11-18T01:23:46;7.10;99.90
35531;DHT22;21637;53.352;-6.356;2022-11-18T01:26:12;7.20;99.90
35531;DHT22;21637;53.352;-6.356;2022-11-18T01:28:38;7.20;99.90
35531;DHT22;21637;53.352;-6.356;2022-11-18T01:31:04;7.20;99.90
35531;DHT22;21637;53.352;-6.356;2022-11-18T01:33:30;7.20;99.90
35531;DHT22;21637;53.352;-6.356;2022-11-18T01:35:56;7.20;99.90
35531;DHT22;21637;53.352;-6.356;2022-11-18T01:38:21;7.20;99.90
35531;DHT22;21637;53.352;-6.356;2022-11-18T01:40:47;7.20;99.90
35531;DHT22;21637;53.352;-6.356;2022-11-18T01:43:13;7.20;99.90
35531;DHT22;21637;53.352;-6.356;2022-11-18T01:45:40;7.20;99.90
35531;DHT22;21637;53.352;-6.356;2022-11-18T01:48:13;7.30;99.90
35531;DHT22;21637;53.352;-6.356;2022-11-18T01:50:45;7.30;99.90
35531;DHT22;21637;53.352;-6.356;2022-11-18T01:53:16;7.40;99.90
35531;DHT22;21637;53.352;-6.356;2022-11-18T01:55:44;7.40;99.90
35531;DHT22;21637;53.352;-6.356;2022-11-18T01:58:17;7.40;99.90
35531;DHT22;21637;53.352;-6.356;2022-11-18T02:00:46;7.40;99.90
35531;DHT22;21637;53.352;-6.356;2022-11-18T02:03:11;7.40;99.90
35531;DHT22;21637;53.352;-6.356;2022-11-18T02:05:38;7.40;99.90
35531;DHT22;21637;53.352;-6.356;2022-11-18T02:08:04;7.50;99.90
35531;DHT22;21637;53.352;-6.356;2022-11-18T02:10:30;7.50;99.90
35531;DHT22;21637;53.352;-6.356;2022-11-18T02:12:56;7.50;99.90
35531;DHT22;21637;53.352;-6.356;2022-11-18T02:15:25;7.50;99.90
35531;DHT22;21637;53.352;-6.356;2022-11-18T02:18:00;7.50;99.90
35531;DHT22;21637;53.352;-6.356;2022-11-18T02:20:41;7.60;99.90
35531;DHT22;21637;53.352;-6.356;2022-11-18T02:25:36;7.60;99.90
35531;DHT22;21637;53.352;-6.356;2022-11-18T02:30:31;7.60;99.90
35531;DHT22;21637;53.352;-6.356;2022-11-18T02:33:11;7.60;99.90
35531;DHT22;21637;53.352;-6.356;2022-11-18T02:38:10;7.70;99.90
35531;DHT22;21637;53.352;-6.356;2022-11-18T02:40:44;7.60;99.90
35531;DHT22;21637;53.352;-6.356;2022-11-18T02:43:19;7.70;99.90
35531;DHT22;21637;53.352;-6.356;2022-11-18T02:45:47;7.70;99.90
35531;DHT22;21637;53.352;-6.356;2022-11-18T02:48:14;7.70;99.90
35531;DHT22;21637;53.352;-6.356;2022-11-18T02:50:41;7.70;99.90
35531;DHT22;21637;53.352;-6.356;2022-11-18T02:53:08;7.70;99.90
35531;DHT22;21637;53.352;-6.356;2022-11-18T02:55:35;7.80;99.90
35531;DHT22;21637;53.352;-6.356;2022-11-18T02:58:02;7.70;99.90
35531;DHT22;21637;53.352;-6.356;2022-11-18T03:00:30;7.80;99.90
35531;DHT22;21637;53.352;-6.356;2022-11-18T03:02:55;7.80;99.90
35531;DHT22;21637;53.352;-6.356;2022-11-18T03:05:26;7.80;99.90
35531;DHT22;21637;53.352;-6.356;2022-11-18T03:07:55;7.80;99.90
35531;DHT22;21637;53.352;-6.356;2022-11-18T03:10:22;7.90;99.90
35531;DHT22;21637;53.352;-6.356;2022-11-18T03:12:55;7.90;99.90
35531;DHT22;21637;53.352;-6.356;2022-11-18T03:20:44;7.80;99.90
35531;DHT22;21637;53.352;-6.356;2022-11-18T03:23:26;7.80;99.90
35531;DHT22;21637;53.352;-6.356;2022-11-18T03:25:54;7.80;99.90
35531;DHT22;21637;53.352;-6.356;2022-11-18T03:31:09;7.80;99.90
35531;DHT22;21637;53.352;-6.356;2022-11-18T03:33:34;7.80;99.90
35531;DHT22;21637;53.352;-6.356;2022-11-18T03:36:01;7.80;99.90
35531;DHT22;21637;53.352;-6.356;2022-11-18T03:38:29;7.80;99.90
35531;DHT22;21637;53.352;-6.356;2022-11-18T03:40:57;7.80;99.90
35531;DHT22;21637;53.352;-6.356;2022-11-18T03:43:24;7.80;99.90
35531;DHT22;21637;53.352;-6.356;2022-11-18T03:45:52;7.90;99.90
35531;DHT22;21637;53.352;-6.356;2022-11-18T03:48:21;7.80;99.90
35531;DHT22;21637;53.352;-6.356;2022-11-18T03:50:54;7.90;99.90
35531;DHT22;21637;53.352;-6.356;2022-11-18T03:53:22;7.90;99.90
35531;DHT22;21637;53.352;-6.356;2022-11-18T03:55:50;7.90;99.90
35531;DHT22;21637;53.352;-6.356;2022-11-18T04:00:46;7.90;99.90
35531;DHT22;21637;53.352;-6.356;2022-11-18T04:03:12;7.80;99.90
35531;DHT22;21637;53.352;-6.356;2022-11-18T04:05:39;7.80;99.90
35531;DHT22;21637;53.352;-6.356;2022-11-18T04:08:07;7.80;99.90
35531;DHT22;21637;53.352;-6.356;2022-11-18T04:10:36;7.80;99.90
35531;DHT22;21637;53.352;-6.356;2022-11-18T04:15:47;7.80;99.90
35531;DHT22;21637;53.352;-6.356;2022-11-18T04:18:12;7.90;99.90
35531;DHT22;21637;53.352;-6.356;2022-11-18T04:20:38;7.90;99.90
35531;DHT22;21637;53.352;-6.356;2022-11-18T04:23:04;7.90;99.90
35531;DHT22;21637;53.352;-6.356;2022-11-18T04:25:30;7.90;99.90
35531;DHT22;21637;53.352;-6.356;2022-11-18T04:27:55;7.90;99.90
35531;DHT22;21637;53.352;-6.356;2022-11-18T04:30:21;7.90;99.90
35531;DHT22;21637;53.352;-6.356;2022-11-18T04:32:47;7.80;99.90
35531;DHT22;21637;53.352;-6.356;2022-11-18T04:35:12;7.80;99.90
35531;DHT22;21637;53.352;-6.356;2022-11-18T04:37:38;7.80;99.90
35531;DHT22;21637;53.352;-6.356;2022-11-18T04:40:04;7.90;99.90
35531;DHT22;21637;53.352;-6.356;2022-11-18T04:42:30;7.80;99.90
35531;DHT22;21637;53.352;-6.356;2022-11-18T04:44:55;7.80;99.90
35531;DHT22;21637;53.352;-6.356;2022-11-18T04:47:21;7.80;99.90
35531;DHT22;21637;53.352;-6.356;2022-11-18T04:49:46;7.70;99.90
35531;DHT22;21637;53.352;-6.356;2022-11-18T04:52:12;7.70;99.90
35531;DHT22;21637;53.352;-6.356;2022-11-18T04:54:38;7.70;99.90
35531;DHT22;21637;53.352;-6.356;2022-11-18T04:57:03;7.70;99.90
35531;DHT22;21637;53.352;-6.356;2022-11-18T04:59:29;7.70;99.90
35531;DHT22;21637;53.352;-6.356;2022-11-18T05:01:55;7.70;99.90
35531;DHT22;21637;53.352;-6.356;2022-11-18T05:04:22;7.70;99.90
35531;DHT22;21637;53.352;-6.356;2022-11-18T05:06:48;7.70;99.90
35531;DHT22;21637;53.352;-6.356;2022-11-18T05:09:14;7.70;99.90
35531;DHT22;21637;53.352;-6.356;2022-11-18T05:11:39;7.70;99.90
35531;DHT22;21637;53.352;-6.356;2022-11-18T05:14:27;7.70;99.90
35531;DHT22;21637;53.352;-6.356;2022-11-18T05:16:56;7.70;99.90
35531;DHT22;21637;53.352;-6.356;2022-11-18T05:19:22;7.70;99.90
35531;DHT22;21637;53.352;-6.356;2022-11-18T05:21:48;7.70;99.90
35531;DHT22;21637;53.352;-6.356;2022-11-18T05:24:13;7.70;99.90
35531;DHT22;21637;53.352;-6.356;2022-11-18T05:26:39;7.70;99.90
35531;DHT22;21637;53.352;-6.356;2022-11-18T05:29:05;7.80;99.90
35531;DHT22;21637;53.352;-6.356;2022-11-18T05:31:31;7.70;99.90
35531;DHT22;21637;53.352;-6.356;2022-11-18T05:33:57;7.70;99.90
35531;DHT22;21637;53.352;-6.356;2022-11-18T05:36:22;7.70;99.90
35531;DHT22;21637;53.352;-6.356;2022-11-18T05:38:48;7.70;99.90
35531;DHT22;21637;53.352;-6.356;2022-11-18T05:41:14;7.60;99.90
35531;DHT22;21637;53.352;-6.356;2022-11-18T05:43:59;7.60;99.90
35531;DHT22;21637;53.352;-6.356;2022-11-18T05:46:25;7.50;99.90
35531;DHT22;21637;53.352;-6.356;2022-11-18T05:48:51;7.40;99.90
35531;DHT22;21637;53.352;-6.356;2022-11-18T05:51:16;7.40;99.90
35531;DHT22;21637;53.352;-6.356;2022-11-18T05:53:42;7.30;99.90
35531;DHT22;21637;53.352;-6.356;2022-11-18T05:58:52;7.20;99.90
35531;DHT22;21637;53.352;-6.356;2022-11-18T06:02:18;7.10;99.90
35531;DHT22;21637;53.352;-6.356;2022-11-18T06:06:38;7.10;99.90
35531;DHT22;21637;53.352;-6.356;2022-11-18T06:09:05;7.00;99.90
35531;DHT22;21637;53.352;-6.356;2022-11-18T06:11:32;7.00;99.90
35531;DHT22;21637;53.352;-6.356;2022-11-18T06:14:01;7.00;99.90
35531;DHT22;21637;53.352;-6.356;2022-11-18T06:16:28;6.90;99.90
35531;DHT22;21637;53.352;-6.356;2022-11-18T06:18:55;6.90;99.90
35531;DHT22;21637;53.352;-6.356;2022-11-18T06:21:21;6.90;99.90
35531;DHT22;21637;53.352;-6.356;2022-11-18T06:23:46;6.90;99.90
35531;DHT22;21637;53.352;-6.356;2022-11-18T06:26:13;6.80;99.90
35531;DHT22;21637;53.352;-6.356;2022-11-18T06:28:39;6.80;99.90
35531;DHT22;21637;53.352;-6.356;2022-11-18T06:31:05;6.70;99.90
35531;DHT22;21637;53.352;-6.356;2022-11-18T06:33:31;6.70;99.90
35531;DHT22;21637;53.352;-6.356;2022-11-18T06:35:56;6.60;99.90
35531;DHT22;21637;53.352;-6.356;2022-11-18T06:38:23;6.60;99.90
35531;DHT22;21637;53.352;-6.356;2022-11-18T06:40:49;6.60;99.90
35531;DHT22;21637;53.352;-6.356;2022-11-18T06:43:15;6.50;99.90
35531;DHT22;21637;53.352;-6.356;2022-11-18T06:45:59;6.50;99.90
35531;DHT22;21637;53.352;-6.356;2022-11-18T06:48:43;6.50;99.90
35531;DHT22;21637;53.352;-6.356;2022-11-18T06:51:09;6.50;99.90
35531;DHT22;21637;53.352;-6.356;2022-11-18T06:53:35;6.40;99.90
35531;DHT22;21637;53.352;-6.356;2022-11-18T06:56:02;6.40;99.90
35531;DHT22;21637;53.352;-6.356;2022-11-18T06:58:27;6.30;99.90
35531;DHT22;21637;53.352;-6.356;2022-11-18T07:00:53;6.30;99.90
35531;DHT22;21637;53.352;-6.356;2022-11-18T07:03:18;6.30;99.90
35531;DHT22;21637;53.352;-6.356;2022-11-18T07:05:44;6.30;99.90
35531;DHT22;21637;53.352;-6.356;2022-11-18T07:08:09;6.20;99.90
35531;DHT22;21637;53.352;-6.356;2022-11-18T07:10:35;6.20;99.90
35531;DHT22;21637;53.352;-6.356;2022-11-18T07:13:00;6.20;99.90
35531;DHT22;21637;53.352;-6.356;2022-11-18T07:15:26;6.20;99.90
35531;DHT22;21637;53.352;-6.356;2022-11-18T07:17:52;6.10;99.90
35531;DHT22;21637;53.352;-6.356;2022-11-18T07:20:17;6.10;99.90
35531;DHT22;21637;53.352;-6.356;2022-11-18T07:22:43;6.10;99.90
35531;DHT22;21637;53.352;-6.356;2022-11-18T07:25:08;6.10;99.90
35531;DHT22;21637;53.352;-6.356;2022-11-18T07:27:34;6.00;99.90
35531;DHT22;21637;53.352;-6.356;2022-11-18T07:29:59;6.00;99.90
35531;DHT22;21637;53.352;-6.356;2022-11-18T07:32:25;6.00;99.90
35531;DHT22;21637;53.352;-6.356;2022-11-18T07:34:51;5.90;99.90
35531;DHT22;21637;53.352;-6.356;2022-11-18T07:37:16;6.00;99.90
35531;DHT22;21637;53.352;-6.356;2022-11-18T07:39:42;5.90;99.90
35531;DHT22;21637;53.352;-6.356;2022-11-18T07:42:08;5.90;99.90
35531;DHT22;21637;53.352;-6.356;2022-11-18T07:44:33;5.90;99.90
35531;DHT22;21637;53.352;-6.356;2022-11-18T07:46:59;5.90;99.90
35531;DHT22;21637;53.352;-6.356;2022-11-18T07:49:24;5.90;99.90
35531;DHT22;21637;53.352;-6.356;2022-11-18T07:51:50;5.80;99.90
35531;DHT22;21637;53.352;-6.356;2022-11-18T07:54:16;5.80;99.90
35531;DHT22;21637;53.352;-6.356;2022-11-18T07:56:42;5.70;99.90
35531;DHT22;21637;53.352;-6.356;2022-11-18T07:59:07;5.70;99.90
35531;DHT22;21637;53.352;-6.356;2022-11-18T08:01:33;5.70;99.90
35531;DHT22;21637;53.352;-6.356;2022-11-18T08:04:05;5.60;99.90
35531;DHT22;21637;53.352;-6.356;2022-11-18T08:06:32;5.60;99.90
35531;DHT22;21637;53.352;-6.356;2022-11-18T08:08:58;5.60;99.90
35531;DHT22;21637;53.352;-6.356;2022-11-18T08:11:24;5.60;99.90
35531;DHT22;21637;53.352;-6.356;2022-11-18T08:13:52;5.60;99.90
35531;DHT22;21637;53.352;-6.356;2022-11-18T08:16:22;5.50;99.90
35531;DHT22;21637;53.352;-6.356;2022-11-18T08:18:48;5.50;99.90
35531;DHT22;21637;53.352;-6.356;2022-11-18T08:21:14;5.50;99.90
35531;DHT22;21637;53.352;-6.356;2022-11-18T08:23:40;5.50;99.90
35531;DHT22;21637;53.352;-6.356;2022-11-18T08:26:09;5.50;99.90
35531;DHT22;21637;53.352;-6.356;2022-11-18T08:28:35;5.50;99.90
35531;DHT22;21637;53.352;-6.356;2022-11-18T08:31:08;5.50;99.90
35531;DHT22;21637;53.352;-6.356;2022-11-18T08:33:34;5.50;99.90
35531;DHT22;21637;53.352;-6.356;2022-11-18T08:36:04;5.50;99.90
35531;DHT22;21637;53.352;-6.356;2022-11-18T08:38:29;5.50;99.90
35531;DHT22;21637;53.352;-6.356;2022-11-18T08:40:55;5.50;99.90
35531;DHT22;21637;53.352;-6.356;2022-11-18T08:43:20;5.60;99.90
35531;DHT22;21637;53.352;-6.356;2022-11-18T08:45:46;5.60;99.90
35531;DHT22;21637;53.352;-6.356;2022-11-18T08:48:12;5.70;99.90
35531;DHT22;21637;53.352;-6.356;2022-11-18T08:50:37;5.70;99.90
35531;DHT22;21637;53.352;-6.356;2022-11-18T08:53:03;5.80;99.90
35531;DHT22;21637;53.352;-6.356;2022-11-18T08:55:28;5.80;99.90
35531;DHT22;21637;53.352;-6.356;2022-11-18T08:57:54;5.90;99.90
35531;DHT22;21637;53.352;-6.356;2022-11-18T09:00:19;6.00;99.90
35531;DHT22;21637;53.352;-6.356;2022-11-18T09:02:45;6.00;99.90
35531;DHT22;21637;53.352;-6.356;2022-11-18T09:05:10;6.10;99.90
35531;DHT22;21637;53.352;-6.356;2022-11-18T09:07:36;6.10;99.90
35531;DHT22;21637;53.352;-6.356;2022-11-18T09:10:02;6.20;99.90
35531;DHT22;21637;53.352;-6.356;2022-11-18T09:12:27;6.30;99.90
35531;DHT22;21637;53.352;-6.356;2022-11-18T09:14:53;6.30;99.90
35531;DHT22;21637;53.352;-6.356;2022-11-18T09:17:18;6.30;99.90
35531;DHT22;21637;53.352;-6.356;2022-11-18T09:19:44;6.40;99.90
35531;DHT22;21637;53.352;-6.356;2022-11-18T09:22:09;6.40;99.90
35531;DHT22;21637;53.352;-6.356;2022-11-18T09:24:35;6.40;99.90
35531;DHT22;21637;53.352;-6.356;2022-11-18T09:27:02;6.40;99.90
35531;DHT22;21637;53.352;-6.356;2022-11-18T09:29:28;6.50;99.90
35531;DHT22;21637;53.352;-6.356;2022-11-18T09:31:54;6.50;99.90
35531;DHT22;21637;53.352;-6.356;2022-11-18T09:34:20;6.50;99.90
35531;DHT22;21637;53.352;-6.356;2022-11-18T09:36:45;6.50;99.90
35531;DHT22;21637;53.352;-6.356;2022-11-18T09:39:11;6.60;99.90
35531;DHT22;21637;53.352;-6.356;2022-11-18T09:44:24;6.60;99.90
35531;DHT22;21637;53.352;-6.356;2022-11-18T09:47:13;6.60;99.90
35531;DHT22;21637;53.352;-6.356;2022-11-18T09:49:44;6.60;99.90
35531;DHT22;21637;53.352;-6.356;2022-11-18T09:54:45;6.70;99.90
35531;DHT22;21637;53.352;-6.356;2022-11-18T09:57:12;6.70;99.90
35531;DHT22;21637;53.352;-6.356;2022-11-18T09:59:39;6.80;99.90
35531;DHT22;21637;53.352;-6.356;2022-11-18T10:04:36;6.80;99.90
35531;DHT22;21637;53.352;-6.356;2022-11-18T10:07:01;6.80;99.90
35531;DHT22;21637;53.352;-6.356;2022-11-18T10:09:34;6.90;99.90
35531;DHT22;21637;53.352;-6.356;2022-11-18T10:20:02;7.00;99.90
35531;DHT22;21637;53.352;-6.356;2022-11-18T10:25:11;7.10;99.90
35531;DHT22;21637;53.352;-6.356;2022-11-18T10:27:38;7.10;99.90
35531;DHT22;21637;53.352;-6.356;2022-11-18T10:30:10;7.10;99.90
35531;DHT22;21637;53.352;-6.356;2022-11-18T10:32:51;7.10;99.90
35531;DHT22;21637;53.352;-6.356;2022-11-18T10:35:50;7.20;99.90
35531;DHT22;21637;53.352;-6.356;2022-11-18T10:40:39;7.30;99.90
35531;DHT22;21637;53.352;-6.356;2022-11-18T10:43:08;7.30;99.90
35531;DHT22;21637;53.352;-6.356;2022-11-18T10:45:34;7.40;99.90
35531;DHT22;21637;53.352;-6.356;2022-11-18T10:52:58;7.40;99.90
35531;DHT22;21637;53.352;-6.356;2022-11-18T10:55:24;7.50;99.90
35531;DHT22;21637;53.352;-6.356;2022-11-18T10:57:54;7.50;99.90
35531;DHT22;21637;53.352;-6.356;2022-11-18T11:03:14;7.50;99.90
35531;DHT22;21637;53.352;-6.356;2022-11-18T11:05:39;7.50;99.90
35531;DHT22;21637;53.352;-6.356;2022-11-18T11:08:16;7.60;99.90
35531;DHT22;21637;53.352;-6.356;2022-11-18T11:10:55;7.60;99.90
35531;DHT22;21637;53.352;-6.356;2022-11-18T11:13:21;7.60;99.90
35531;DHT22;21637;53.352;-6.356;2022-11-18T11:15:48;7.60;99.90
35531;DHT22;21637;53.352;-6.356;2022-11-18T11:18:31;7.70;99.90
35531;DHT22;21637;53.352;-6.356;2022-11-18T11:21:10;7.80;99.90
35531;DHT22;21637;53.352;-6.356;2022-11-18T11:23:37;7.80;99.90
35531;DHT22;21637;53.352;-6.356;2022-11-18T11:26:07;7.80;99.90
35531;DHT22;21637;53.352;-6.356;2022-11-18T11:28:44;7.90;99.90
35531;DHT22;21637;53.352;-6.356;2022-11-18T11:39:50;8.10;99.90
35531;DHT22;21637;53.352;-6.356;2022-11-18T11:58:02;8.40;99.90
35531;DHT22;21637;53.352;-6.356;2022-11-18T12:00:28;8.40;99.90
35531;DHT22;21637;53.352;-6.356;2022-11-18T12:03:16;8.40;99.90
35531;DHT22;21637;53.352;-6.356;2022-11-18T12:05:44;8.50;99.90
35531;DHT22;21637;53.352;-6.356;2022-11-18T12:08:23;8.50;99.90
35531;DHT22;21637;53.352;-6.356;2022-11-18T12:13:46;8.50;99.90
35531;DHT22;21637;53.352;-6.356;2022-11-18T12:16:20;8.50;99.90
35531;DHT22;21637;53.352;-6.356;2022-11-18T12:26:41;8.60;99.90
35531;DHT22;21637;53.352;-6.356;2022-11-18T12:29:42;8.60;99.90
35531;DHT22;21637;53.352;-6.356;2022-11-18T12:32:00;8.60;99.90
35531;DHT22;21637;53.352;-6.356;2022-11-18T12:36:54;8.70;99.90
35531;DHT22;21637;53.352;-6.356;2022-11-18T12:44:29;8.80;99.90
35531;DHT22;21637;53.352;-6.356;2022-11-18T12:46:56;8.80;99.90
35531;DHT22;21637;53.352;-6.356;2022-11-18T12:51:47;8.80;99.90
35531;DHT22;21637;53.352;-6.356;2022-11-18T12:54:32;8.80;99.90
35531;DHT22;21637;53.352;-6.356;2022-11-18T12:57:04;8.90;99.90
35531;DHT22;21637;53.352;-6.356;2022-11-18T12:59:37;8.90;99.90
35531;DHT22;21637;53.352;-6.356;2022-11-18T13:04:35;8.90;99.90
35531;DHT22;21637;53.352;-6.356;2022-11-18T13:07:01;8.90;99.90
35531;DHT22;21637;53.352;-6.356;2022-11-18T13:09:28;9.00;99.90
35531;DHT22;21637;53.352;-6.356;2022-11-18T13:11:55;8.90;99.90
35531;DHT22;21637;53.352;-6.356;2022-11-18T13:14:24;8.90;99.90
35531;DHT22;21637;53.352;-6.356;2022-11-18T13:22:52;8.90;99.90
35531;DHT22;21637;53.352;-6.356;2022-11-18T13:25:44;9.00;99.90
35531;DHT22;21637;53.352;-6.356;2022-11-18T13:31:07;9.10;99.90
35531;DHT22;21637;53.352;-6.356;2022-11-18T13:33:36;9.10;99.90
35531;DHT22;21637;53.352;-6.356;2022-11-18T13:36:02;9.10;99.90
35531;DHT22;21637;53.352;-6.356;2022-11-18T13:38:37;9.10;99.90
35531;DHT22;21637;53.352;-6.356;2022-11-18T13:41:13;9.10;99.90
35531;DHT22;21637;53.352;-6.356;2022-11-18T13:43:46;9.10;99.90
35531;DHT22;21637;53.352;-6.356;2022-11-18T13:46:13;9.10;99.90
35531;DHT22;21637;53.352;-6.356;2022-11-18T13:48:43;9.10;99.90
35531;DHT22;21637;53.352;-6.356;2022-11-18T13:51:10;9.10;99.90
35531;DHT22;21637;53.352;-6.356;2022-11-18T13:53:36;9.10;99.90
35531;DHT22;21637;53.352;-6.356;2022-11-18T13:56:06;9.20;99.90
35531;DHT22;21637;53.352;-6.356;2022-11-18T13:58:41;9.10;99.90
35531;DHT22;21637;53.352;-6.356;2022-11-18T14:01:21;9.10;99.90
35531;DHT22;21637;53.352;-6.356;2022-11-18T14:03:48;9.10;99.90
35531;DHT22;21637;53.352;-6.356;2022-11-18T14:06:27;9.00;99.90
35531;DHT22;21637;53.352;-6.356;2022-11-18T14:11:35;9.00;99.90
35531;DHT22;21637;53.352;-6.356;2022-11-18T14:14:01;9.00;99.90
35531;DHT22;21637;53.352;-6.356;2022-11-18T14:16:31;9.10;99.90
35531;DHT22;21637;53.352;-6.356;2022-11-18T14:18:56;9.00;99.90
35531;DHT22;21637;53.352;-6.356;2022-11-18T14:21:26;9.00;99.90
35531;DHT22;21637;53.352;-6.356;2022-11-18T14:23:52;9.00;99.90
35531;DHT22;21637;53.352;-6.356;2022-11-18T14:26:28;9.00;99.90
35531;DHT22;21637;53.352;-6.356;2022-11-18T14:28:54;9.00;99.90
35531;DHT22;21637;53.352;-6.356;2022-11-18T14:31:27;9.00;99.90
35531;DHT22;21637;53.352;-6.356;2022-11-18T14:34:35;9.00;99.90
35531;DHT22;21637;53.352;-6.356;2022-11-18T14:36:45;8.90;99.90
35531;DHT22;21637;53.352;-6.356;2022-11-18T14:39:25;9.00;99.90
35531;DHT22;21637;53.352;-6.356;2022-11-18T14:41:51;9.00;99.90
35531;DHT22;21637;53.352;-6.356;2022-11-18T14:44:18;9.00;99.90
35531;DHT22;21637;53.352;-6.356;2022-11-18T14:46:48;8.90;99.90
35531;DHT22;21637;53.352;-6.356;2022-11-18T14:49:17;8.90;99.90
35531;DHT22;21637;53.352;-6.356;2022-11-18T14:51:43;8.90;99.90
35531;DHT22;21637;53.352;-6.356;2022-11-18T14:54:12;8.90;99.90
35531;DHT22;21637;53.352;-6.356;2022-11-18T14:56:39;8.90;99.90
35531;DHT22;21637;53.352;-6.356;2022-11-18T14:59:05;8.80;99.90
35531;DHT22;21637;53.352;-6.356;2022-11-18T15:01:30;8.80;99.90
35531;DHT22;21637;53.352;-6.356;2022-11-18T15:03:56;8.80;99.90
35531;DHT22;21637;53.352;-6.356;2022-11-18T15:06:22;8.70;99.90
35531;DHT22;21637;53.352;-6.356;2022-11-18T15:08:49;8.80;99.90
35531;DHT22;21637;53.352;-6.356;2022-11-18T15:11:15;8.80;99.90
35531;DHT22;21637;53.352;-6.356;2022-11-18T15:13:41;8.80;99.90
35531;DHT22;21637;53.352;-6.356;2022-11-18T15:16:11;8.70;99.90
35531;DHT22;21637;53.352;-6.356;2022-11-18T15:18:37;8.70;99.90
35531;DHT22;21637;53.352;-6.356;2022-11-18T15:21:02;8.70;99.90
35531;DHT22;21637;53.352;-6.356;2022-11-18T15:23:28;8.70;99.90
35531;DHT22;21637;53.352;-6.356;2022-11-18T15:25:54;8.70;99.90
35531;DHT22;21637;53.352;-6.356;2022-11-18T15:28:19;8.60;99.90
35531;DHT22;21637;53.352;-6.356;2022-11-18T15:30:45;8.60;99.90
35531;DHT22;21637;53.352;-6.356;2022-11-18T15:33:10;8.60;99.90
35531;DHT22;21637;53.352;-6.356;2022-11-18T15:35:36;8.60;99.90
35531;DHT22;21637;53.352;-6.356;2022-11-18T15:38:01;8.50;99.90
35531;DHT22;21637;53.352;-6.356;2022-11-18T15:40:27;8.40;99.90
35531;DHT22;21637;53.352;-6.356;2022-11-18T15:42:53;8.40;99.90
35531;DHT22;21637;53.352;-6.356;2022-11-18T15:45:18;8.30;99.90
35531;DHT22;21637;53.352;-6.356;2022-11-18T15:47:44;8.30;99.90
35531;DHT22;21637;53.352;-6.356;2022-11-18T15:50:10;8.30;99.90
35531;DHT22;21637;53.352;-6.356;2022-11-18T15:52:36;8.20;99.90
35531;DHT22;21637;53.352;-6.356;2022-11-18T15:55:01;8.20;99.90
35531;DHT22;21637;53.352;-6.356;2022-11-18T15:57:27;8.20;99.90
35531;DHT22;21637;53.352;-6.356;2022-11-18T15:59:52;8.20;99.90
35531;DHT22;21637;53.352;-6.356;2022-11-18T16:02:18;8.10;99.90
35531;DHT22;21637;53.352;-6.356;2022-11-18T16:04:43;8.10;99.90
35531;DHT22;21637;53.352;-6.356;2022-11-18T16:07:09;8.10;99.90
35531;DHT22;21637;53.352;-6.356;2022-11-18T16:09:35;8.10;99.90
35531;DHT22;21637;53.352;-6.356;2022-11-18T16:12:19;8.10;99.90
35531;DHT22;21637;53.352;-6.356;2022-11-18T16:15:03;8.20;99.90
35531;DHT22;21637;53.352;-6.356;2022-11-18T16:17:47;8.20;99.90
35531;DHT22;21637;53.352;-6.356;2022-11-18T16:20:12;8.10;99.90
35531;DHT22;21637;53.352;-6.356;2022-11-18T16:22:38;8.10;99.90
35531;DHT22;21637;53.352;-6.356;2022-11-18T16:25:04;8.10;99.90
35531;DHT22;21637;53.352;-6.356;2022-11-18T16:27:29;8.20;99.90
35531;DHT22;21637;53.352;-6.356;2022-11-18T16:29:55;8.20;99.90
35531;DHT22;21637;53.352;-6.356;2022-11-18T16:32:20;8.20;99.90
35531;DHT22;21637;53.352;-6.356;2022-11-18T16:34:46;8.10;99.90
35531;DHT22;21637;53.352;-6.356;2022-11-18T16:37:12;8.10;99.90
35531;DHT22;21637;53.352;-6.356;2022-11-18T16:39:37;8.10;99.90
35531;DHT22;21637;53.352;-6.356;2022-11-18T16:42:03;8.10;99.90
35531;DHT22;21637;53.352;-6.356;2022-11-18T16:44:28;8.00;99.90
35531;DHT22;21637;53.352;-6.356;2022-11-18T16:46:54;8.10;99.90
35531;DHT22;21637;53.352;-6.356;2022-11-18T16:49:21;8.10;99.90
35531;DHT22;21637;53.352;-6.356;2022-11-18T16:51:48;8.10;99.90
35531;DHT22;21637;53.352;-6.356;2022-11-18T16:54:15;8.00;99.90
35531;DHT22;21637;53.352;-6.356;2022-11-18T16:56:42;8.00;99.90
35531;DHT22;21637;53.352;-6.356;2022-11-18T16:59:21;7.90;99.90
35531;DHT22;21637;53.352;-6.356;2022-11-18T17:01:47;7.90;99.90
35531;DHT22;21637;53.352;-6.356;2022-11-18T17:04:13;7.80;99.90
35531;DHT22;21637;53.352;-6.356;2022-11-18T17:06:38;7.80;99.90
35531;DHT22;21637;53.352;-6.356;2022-11-18T17:09:04;7.70;99.90
35531;DHT22;21637;53.352;-6.356;2022-11-18T17:11:30;7.60;99.90
35531;DHT22;21637;53.352;-6.356;2022-11-18T17:13:55;7.50;99.90
35531;DHT22;21637;53.352;-6.356;2022-11-18T17:16:21;7.50;99.90
35531;DHT22;21637;53.352;-6.356;2022-11-18T17:18:52;7.40;99.90
35531;DHT22;21637;53.352;-6.356;2022-11-18T17:21:19;7.40;99.90
35531;DHT22;21637;53.352;-6.356;2022-11-18T17:23:45;7.30;99.90
35531;DHT22;21637;53.352;-6.356;2022-11-18T17:26:11;7.30;99.90
35531;DHT22;21637;53.352;-6.356;2022-11-18T17:28:37;7.20;99.90